Time;durP1;ratioP1;P1;durP2;ratioP2;P2;SDS_P1;SDS_P2;PMS_P1;PMS_P2;Temp;Humidity;BMP_temperature;BMP_pressure;BME280_temperature;BME280_humidity;BME280_pressure;Samples;Min_cycle;Max_cycle;Signal;HPM_P1;HPM_P2
2023/01/11 00:01:49;;;;;;;3.05;1.67;;;;;;;;;;5118581;28;20546;-65
2023/01/11 00:04:19;;;;;;;1.70;1.60;;;;;;;;;;5118224;28;20262;-65
2023/01/11 00:06:47;;;;;;;2.15;1.80;;;;;;;;;;5118234;28;20289;-66
2023/01/11 00:09:15;;;;;;;1.58;1.30;;;;;;;;;;5118643;28;20211;-65
2023/01/11 00:11:43;;;;;;;2.10;1.90;;;;;;;;;;5118528;28;20218;-65
2023/01/11 00:14:11;;;;;;;2.10;1.85;;;;;;;;;;5118641;28;20458;-65
2023/01/11 00:16:39;;;;;;;1.50;1.40;;;;;;;;;;5118162;28;20335;-65
2023/01/11 00:19:06;;;;;;;1.95;1.40;;;;;;;;;;5118199;28;20210;-65
2023/01/11 00:21:35;;;;;;;1.60;1.30;;;;;;;;;;5118781;28;20287;-64
2023/01/11 00:24:03;;;;;;;1.63;1.50;;;;;;;;;;5118002;28;20227;-65
2023/01/11 00:26:30;;;;;;;1.67;1.40;;;;;;;;;;5117459;28;20213;-64
2023/01/11 00:28:58;;;;;;;1.52;1.40;;;;;;;;;;5118576;28;20264;-65
2023/01/11 00:31:26;;;;;;;1.67;1.58;;;;;;;;;;5118221;28;20203;-65
2023/01/11 00:33:54;;;;;;;1.60;1.35;;;;;;;;;;5118486;28;20211;-64
2023/01/11 00:36:21;;;;;;;1.50;1.40;;;;;;;;;;5135765;27;20241;-65
2023/01/11 00:38:54;;;;;;;1.70;1.50;;;;;;;;;;5138485;27;20274;-65
2023/01/11 00:49:37;;;;;;;1.50;1.17;;;;;;;;;;5158935;27;20242;-65
2023/01/11 00:52:07;;;;;;;1.90;1.25;;;;;;;;;;5158785;27;20659;-65
2023/01/11 00:54:37;;;;;;;1.40;1.30;;;;;;;;;;5145701;27;20234;-65
2023/01/11 00:57:06;;;;;;;1.45;1.30;;;;;;;;;;5142154;27;20567;-66
2023/01/11 00:59:33;;;;;;;1.65;1.33;;;;;;;;;;5142271;27;20559;-65
2023/01/11 01:02:01;;;;;;;1.20;1.10;;;;;;;;;;5142049;27;20209;-65
2023/01/11 01:04:29;;;;;;;1.23;1.13;;;;;;;;;;5142182;27;20234;-65
2023/01/11 01:06:57;;;;;;;1.27;1.10;;;;;;;;;;5141935;27;20202;-65
2023/01/11 01:09:25;;;;;;;1.30;1.20;;;;;;;;;;5141534;27;20210;-65
2023/01/11 01:11:54;;;;;;;1.23;1.10;;;;;;;;;;5141845;27;20202;-65
2023/01/11 01:14:28;;;;;;;1.30;1.20;;;;;;;;;;5141707;27;20537;-65
2023/01/11 01:16:56;;;;;;;1.20;1.10;;;;;;;;;;5141729;27;20199;-65
2023/01/11 01:19:26;;;;;;;1.23;1.13;;;;;;;;;;5141686;27;20209;-66
2023/01/11 01:21:54;;;;;;;1.48;1.25;;;;;;;;;;5141612;27;20206;-65
2023/01/11 01:24:22;;;;;;;1.63;1.05;;;;;;;;;;5141722;27;20283;-65
2023/01/11 01:26:49;;;;;;;1.63;1.10;;;;;;;;;;5141656;27;20209;-65
2023/01/11 01:29:19;;;;;;;1.10;1.00;;;;;;;;;;5140235;27;20202;-65
2023/01/11 01:31:46;;;;;;;1.20;1.10;;;;;;;;;;5140911;27;20259;-65
2023/01/11 01:34:14;;;;;;;1.17;1.05;;;;;;;;;;5141076;27;20206;-66
2023/01/11 01:36:42;;;;;;;1.75;1.10;;;;;;;;;;5140482;27;20209;-65
2023/01/11 01:39:11;;;;;;;1.30;1.00;;;;;;;;;;5140854;27;20221;-66
2023/01/11 01:41:40;;;;;;;1.10;1.00;;;;;;;;;;5141087;27;20230;-65
2023/01/11 01:44:22;;;;;;;1.20;1.10;;;;;;;;;;5140760;27;20209;-65
2023/01/11 01:46:51;;;;;;;1.45;1.08;;;;;;;;;;5140262;27;20248;-65
2023/01/11 01:49:19;;;;;;;1.33;1.10;;;;;;;;;;5141567;27;20267;-65
2023/01/11 01:51:50;;;;;;;1.02;0.93;;;;;;;;;;5141144;27;20201;-65
2023/01/11 01:54:19;;;;;;;1.17;1.08;;;;;;;;;;5140840;27;20261;-65
2023/01/11 01:56:48;;;;;;;1.17;0.90;;;;;;;;;;5140810;27;20251;-66
2023/01/11 01:59:18;;;;;;;1.10;1.00;;;;;;;;;;5141108;27;20206;-65
2023/01/11 02:01:49;;;;;;;1.00;0.90;;;;;;;;;;5141295;27;20263;-65
2023/01/11 02:04:21;;;;;;;1.20;1.10;;;;;;;;;;5140789;27;20213;-66
2023/01/11 02:06:49;;;;;;;1.10;0.82;;;;;;;;;;5140758;27;20203;-66
2023/01/11 02:09:20;;;;;;;1.00;0.90;;;;;;;;;;5140925;27;20210;-66
2023/01/11 02:11:47;;;;;;;1.27;0.85;;;;;;;;;;5140779;27;20203;-65
2023/01/11 02:14:17;;;;;;;1.10;1.00;;;;;;;;;;5140672;27;20284;-65
2023/01/11 02:16:45;;;;;;;1.83;1.10;;;;;;;;;;5141147;27;20206;-66
2023/01/11 02:19:17;;;;;;;1.05;0.95;;;;;;;;;;5140998;27;20198;-66
2023/01/11 02:21:57;;;;;;;1.00;0.77;;;;;;;;;;5140872;27;20209;-66
2023/01/11 02:24:44;;;;;;;0.88;0.88;;;;;;;;;;5140504;27;20279;-65
2023/01/11 02:27:22;;;;;;;0.80;0.80;;;;;;;;;;5140465;27;20206;-65
2023/01/11 02:29:56;;;;;;;0.80;0.80;;;;;;;;;;5140645;27;20491;-66
2023/01/11 02:32:27;;;;;;;0.88;0.68;;;;;;;;;;5140812;27;20210;-65
2023/01/11 02:35:00;;;;;;;1.30;1.20;;;;;;;;;;5140290;27;20374;-65
2023/01/11 02:37:30;;;;;;;1.10;0.80;;;;;;;;;;5140148;27;20202;-65
2023/01/11 02:40:06;;;;;;;0.80;0.80;;;;;;;;;;5140191;27;20209;-66
2023/01/11 02:45:34;;;;;;;2.45;0.93;;;;;;;;;;5140356;27;20314;-66
2023/01/11 02:48:05;;;;;;;1.00;0.90;;;;;;;;;;5139730;27;20581;-66
2023/01/11 02:50:36;;;;;;;1.02;0.88;;;;;;;;;;5139864;27;20221;-66
2023/01/11 02:53:07;;;;;;;1.38;1.00;;;;;;;;;;5143262;27;20237;-65
2023/01/11 02:55:38;;;;;;;1.00;0.90;;;;;;;;;;5160591;27;20296;-66
2023/01/11 02:58:09;;;;;;;1.00;0.90;;;;;;;;;;5160778;27;20266;-66
2023/01/11 03:00:39;;;;;;;0.90;0.90;;;;;;;;;;5160457;27;20489;-66
2023/01/11 03:03:08;;;;;;;1.05;0.90;;;;;;;;;;5160451;27;20210;-65
2023/01/11 03:05:38;;;;;;;1.05;0.90;;;;;;;;;;5160064;27;20315;-65
2023/01/11 03:08:11;;;;;;;1.05;0.80;;;;;;;;;;5159920;27;20288;-65
2023/01/11 03:10:42;;;;;;;1.73;1.13;;;;;;;;;;5159954;27;20548;-66
2023/01/11 03:13:12;;;;;;;1.00;0.85;;;;;;;;;;5159806;27;20305;-65
2023/01/11 03:15:54;;;;;;;1.40;1.08;;;;;;;;;;5159378;27;20228;-65
2023/01/11 03:18:28;;;;;;;1.00;0.82;;;;;;;;;;5160413;27;20304;-65
2023/01/11 03:21:02;;;;;;;0.90;0.80;;;;;;;;;;5160184;27;20385;-66
2023/01/11 03:23:35;;;;;;;0.93;0.73;;;;;;;;;;5160113;27;20210;-66
2023/01/11 03:26:05;;;;;;;1.05;0.80;;;;;;;;;;5160110;27;20294;-66
2023/01/11 03:28:35;;;;;;;1.27;1.00;;;;;;;;;;5160023;27;20270;-65
2023/01/11 03:31:07;;;;;;;0.93;0.80;;;;;;;;;;5160206;27;20319;-66
2023/01/11 03:33:38;;;;;;;1.20;0.98;;;;;;;;;;5160169;27;20673;-65
2023/01/11 03:36:10;;;;;;;1.60;1.00;;;;;;;;;;5160539;27;20240;-66
2023/01/11 03:38:39;;;;;;;0.95;0.82;;;;;;;;;;5159650;27;20292;-65
2023/01/11 03:41:08;;;;;;;0.90;0.85;;;;;;;;;;5159777;27;20202;-65
2023/01/11 03:43:38;;;;;;;1.23;1.13;;;;;;;;;;5160460;27;20201;-65
2023/01/11 03:46:10;;;;;;;1.77;0.88;;;;;;;;;;5159832;27;20228;-65
2023/01/11 03:48:39;;;;;;;1.48;0.80;;;;;;;;;;5159614;27;20202;-65
2023/01/11 03:51:10;;;;;;;1.20;1.02;;;;;;;;;;5159219;27;20248;-65
2023/01/11 03:53:39;;;;;;;1.10;1.00;;;;;;;;;;5159008;27;20233;-66
2023/01/11 03:56:09;;;;;;;1.23;1.00;;;;;;;;;;5158896;27;20657;-65
2023/01/11 03:58:37;;;;;;;1.08;1.00;;;;;;;;;;5158668;27;20274;-66
2023/01/11 04:01:05;;;;;;;1.20;1.05;;;;;;;;;;5157591;27;20201;-65
2023/01/11 04:03:34;;;;;;;1.42;1.05;;;;;;;;;;5158659;27;20604;-66
2023/01/11 04:06:02;;;;;;;1.05;0.90;;;;;;;;;;5158334;27;20233;-65
2023/01/11 04:08:31;;;;;;;1.13;1.02;;;;;;;;;;5158954;27;20306;-65
2023/01/11 04:10:59;;;;;;;1.02;0.80;;;;;;;;;;5159263;27;20227;-65
2023/01/11 04:13:26;;;;;;;1.00;0.90;;;;;;;;;;5159021;27;20212;-66
2023/01/11 04:15:54;;;;;;;1.77;1.20;;;;;;;;;;5158939;27;20197;-65
2023/01/11 04:18:22;;;;;;;1.02;0.90;;;;;;;;;;5158995;27;20523;-65
2023/01/11 04:20:51;;;;;;;1.10;1.00;;;;;;;;;;5158956;27;20220;-65
2023/01/11 04:23:19;;;;;;;0.90;0.80;;;;;;;;;;5158925;27;20201;-65
2023/01/11 04:25:47;;;;;;;1.05;0.90;;;;;;;;;;5158598;27;20483;-65
2023/01/11 04:28:15;;;;;;;1.65;0.73;;;;;;;;;;5162994;27;20658;-65
2023/01/11 04:30:42;;;;;;;1.00;0.82;;;;;;;;;;5162803;27;20208;-66
2023/01/11 04:33:12;;;;;;;1.38;1.00;;;;;;;;;;5162439;27;20202;-65
2023/01/11 04:35:39;;;;;;;0.80;0.80;;;;;;;;;;5163015;27;20528;-65
2023/01/11 04:38:09;;;;;;;1.02;0.93;;;;;;;;;;5162494;27;20262;-65
2023/01/11 04:40:36;;;;;;;1.40;0.90;;;;;;;;;;5162415;27;20296;-65
2023/01/11 04:43:03;;;;;;;1.65;0.90;;;;;;;;;;5162547;27;20209;-65
2023/01/11 04:45:31;;;;;;;1.55;1.05;;;;;;;;;;5162745;27;20299;-65
2023/01/11 04:47:59;;;;;;;1.63;0.88;;;;;;;;;;5162315;27;20210;-65
2023/01/11 04:50:28;;;;;;;0.90;0.90;;;;;;;;;;5162175;27;20306;-65
2023/01/11 04:52:56;;;;;;;1.10;0.90;;;;;;;;;;5160148;27;20291;-65
2023/01/11 04:55:25;;;;;;;1.25;0.90;;;;;;;;;;5142295;27;20198;-65
2023/01/11 04:57:53;;;;;;;1.55;1.00;;;;;;;;;;5142070;27;20202;-66
2023/01/11 05:00:21;;;;;;;1.00;0.90;;;;;;;;;;5142219;27;20218;-65
2023/01/11 05:02:49;;;;;;;1.48;0.95;;;;;;;;;;5142103;27;20212;-65
2023/01/11 05:05:17;;;;;;;1.23;0.90;;;;;;;;;;5141587;27;20293;-65
2023/01/11 05:07:44;;;;;;;1.15;0.90;;;;;;;;;;5141638;27;20263;-65
2023/01/11 05:10:12;;;;;;;1.00;0.90;;;;;;;;;;5141529;27;20213;-65
2023/01/11 05:12:42;;;;;;;1.00;0.88;;;;;;;;;;5137637;27;20296;-65
2023/01/11 05:15:10;;;;;;;1.15;1.05;;;;;;;;;;5120583;28;20214;-65
2023/01/11 05:17:38;;;;;;;0.80;0.80;;;;;;;;;;5120415;28;20210;-66
2023/01/11 05:20:07;;;;;;;1.15;0.75;;;;;;;;;;5120235;28;20461;-66
2023/01/11 05:22:34;;;;;;;0.70;0.70;;;;;;;;;;5120803;28;20211;-66
2023/01/11 05:25:02;;;;;;;1.25;0.95;;;;;;;;;;5121024;28;20214;-65
2023/01/11 05:27:30;;;;;;;1.05;0.95;;;;;;;;;;5119781;28;20546;-65
2023/01/11 05:29:59;;;;;;;1.30;0.95;;;;;;;;;;5120815;28;20274;-65
2023/01/11 05:32:27;;;;;;;1.10;0.85;;;;;;;;;;5118380;28;20195;-69
2023/01/11 05:34:55;;;;;;;1.15;0.90;;;;;;;;;;5119874;28;20292;-66
2023/01/11 05:37:23;;;;;;;1.10;0.80;;;;;;;;;;5119246;28;20210;-66
2023/01/11 05:39:51;;;;;;;1.00;0.90;;;;;;;;;;5117300;28;20242;-69
2023/01/11 05:42:18;;;;;;;0.77;0.68;;;;;;;;;;5118843;28;20211;-66
2023/01/11 05:47:42;;;;;;;0.80;0.80;;;;;;;;;;5068762;28;20521;-66
2023/01/11 05:50:10;;;;;;;1.02;0.80;;;;;;;;;;5118214;28;20202;-66
2023/01/11 05:52:38;;;;;;;1.02;0.60;;;;;;;;;;5118523;28;20203;-66
2023/01/11 05:55:06;;;;;;;1.15;0.80;;;;;;;;;;5137253;27;20285;-66
2023/01/11 05:57:34;;;;;;;0.88;0.88;;;;;;;;;;5137767;27;20210;-66
2023/01/11 06:00:02;;;;;;;0.85;0.80;;;;;;;;;;5139353;27;20210;-67
2023/01/11 06:02:29;;;;;;;1.00;0.80;;;;;;;;;;5137479;27;20457;-66
2023/01/11 06:04:59;;;;;;;0.80;0.80;;;;;;;;;;5137398;27;20202;-65
2023/01/11 06:07:27;;;;;;;0.95;0.90;;;;;;;;;;5137399;27;20229;-66
2023/01/11 06:09:54;;;;;;;1.00;0.90;;;;;;;;;;5136921;27;20486;-65
2023/01/11 06:12:22;;;;;;;0.80;0.80;;;;;;;;;;5135402;27;20246;-65
2023/01/11 06:14:50;;;;;;;1.33;0.80;;;;;;;;;;5138043;27;20559;-66
2023/01/11 06:17:18;;;;;;;1.25;0.70;;;;;;;;;;5136052;27;20199;-65
2023/01/11 06:19:46;;;;;;;1.08;0.85;;;;;;;;;;5134535;27;20205;-65
2023/01/11 06:22:15;;;;;;;1.55;1.17;;;;;;;;;;5136012;27;20202;-65
2023/01/11 06:24:43;;;;;;;2.08;1.13;;;;;;;;;;5136009;27;20213;-66
2023/01/11 06:27:11;;;;;;;2.35;1.35;;;;;;;;;;5134721;27;20226;-65
2023/01/11 06:29:38;;;;;;;2.53;1.33;;;;;;;;;;5134502;27;20298;-66
2023/01/11 06:32:07;;;;;;;2.67;1.40;;;;;;;;;;5134000;27;20285;-65
2023/01/11 06:34:35;;;;;;;2.65;1.58;;;;;;;;;;5135019;27;20277;-65
2023/01/11 06:37:03;;;;;;;3.35;1.50;;;;;;;;;;5135272;27;20666;-65
2023/01/11 06:39:32;;;;;;;3.33;1.60;;;;;;;;;;5133783;27;20213;-65
2023/01/11 06:41:59;;;;;;;3.63;1.55;;;;;;;;;;5133828;27;20291;-65
2023/01/11 06:44:27;;;;;;;3.50;1.70;;;;;;;;;;5136782;27;20221;-65
2023/01/11 06:46:55;;;;;;;7.75;2.22;;;;;;;;;;5136913;27;20279;-65
2023/01/11 06:49:23;;;;;;;5.18;2.17;;;;;;;;;;5137213;27;20667;-65
2023/01/11 06:51:51;;;;;;;3.83;2.17;;;;;;;;;;5135492;27;20650;-65
2023/01/11 06:54:21;;;;;;;3.55;1.95;;;;;;;;;;5134824;27;20349;-65
2023/01/11 06:56:51;;;;;;;3.60;1.90;;;;;;;;;;5135107;27;20198;-65
2023/01/11 06:59:18;;;;;;;3.60;2.03;;;;;;;;;;5134913;27;20213;-65
2023/01/11 07:01:46;;;;;;;4.72;2.20;;;;;;;;;;5133992;27;20579;-65
2023/01/11 07:04:14;;;;;;;4.15;2.38;;;;;;;;;;5135013;27;20263;-65
2023/01/11 07:06:42;;;;;;;5.43;2.15;;;;;;;;;;5136648;27;20222;-65
2023/01/11 07:09:09;;;;;;;2.92;2.20;;;;;;;;;;5134663;27;20292;-65
2023/01/11 07:11:38;;;;;;;3.35;2.30;;;;;;;;;;5116584;28;20645;-65
2023/01/11 07:14:07;;;;;;;4.75;2.42;;;;;;;;;;5138664;27;20210;-65
2023/01/11 07:16:34;;;;;;;4.18;2.05;;;;;;;;;;5137779;27;20544;-65
2023/01/11 07:19:02;;;;;;;4.07;2.30;;;;;;;;;;5136552;27;20206;-65
2023/01/11 07:21:30;;;;;;;3.65;1.98;;;;;;;;;;5135982;27;20270;-64
2023/01/11 07:23:58;;;;;;;3.60;2.10;;;;;;;;;;5135787;27;20195;-65
2023/01/11 07:26:27;;;;;;;4.53;2.20;;;;;;;;;;5134861;27;20583;-65
2023/01/11 07:28:54;;;;;;;4.95;2.40;;;;;;;;;;5135464;27;20588;-66
2023/01/11 07:31:26;;;;;;;3.40;2.05;;;;;;;;;;5136333;27;20557;-65
2023/01/11 07:33:56;;;;;;;4.05;2.38;;;;;;;;;;5136765;27;20283;-65
2023/01/11 07:36:24;;;;;;;4.38;1.98;;;;;;;;;;5136798;27;20198;-66
2023/01/11 07:38:52;;;;;;;4.90;2.30;;;;;;;;;;5136068;27;20204;-65
2023/01/11 07:44:04;;;;;;;5.10;2.28;;;;;;;;;;5135462;27;20197;-65
2023/01/11 07:46:33;;;;;;;4.13;2.28;;;;;;;;;;5135230;27;20573;-65
2023/01/11 07:49:01;;;;;;;2.63;1.65;;;;;;;;;;5135406;27;20229;-65
2023/01/11 07:51:29;;;;;;;3.35;1.95;;;;;;;;;;5135921;27;20241;-64
2023/01/11 07:54:01;;;;;;;5.28;2.00;;;;;;;;;;5134995;27;20329;-65
2023/01/11 07:56:28;;;;;;;3.60;2.05;;;;;;;;;;5134050;27;20198;-64
2023/01/11 07:58:56;;;;;;;3.30;1.98;;;;;;;;;;5136876;27;20212;-65
2023/01/11 08:01:24;;;;;;;5.75;2.30;;;;;;;;;;5134444;27;20206;-65
2023/01/11 08:03:53;;;;;;;4.40;2.28;;;;;;;;;;5134964;27;20208;-65
2023/01/11 08:06:21;;;;;;;4.25;2.10;;;;;;;;;;5135300;27;20206;-65
2023/01/11 08:08:49;;;;;;;4.03;2.00;;;;;;;;;;5136057;28;20558;-65
2023/01/11 08:16:46;;;;;;;4.47;1.98;;;;;;;;;;5134734;28;20242;-65
2023/01/11 08:19:15;;;;;;;2.70;1.90;;;;;;;;;;5135447;28;20541;-65
2023/01/11 08:21:43;;;;;;;4.30;2.00;;;;;;;;;;5137115;28;20555;-65
2023/01/11 08:24:11;;;;;;;2.95;2.03;;;;;;;;;;5135907;28;20484;-65
2023/01/11 08:26:38;;;;;;;2.63;1.65;;;;;;;;;;5134583;28;20640;-65
2023/01/11 08:29:06;;;;;;;3.70;1.60;;;;;;;;;;5134712;28;20209;-65
2023/01/11 08:31:34;;;;;;;3.63;1.80;;;;;;;;;;5134816;28;20205;-65
2023/01/11 08:34:02;;;;;;;3.45;1.80;;;;;;;;;;5134707;28;20226;-66
2023/01/11 08:36:31;;;;;;;3.42;1.73;;;;;;;;;;5134275;28;20202;-66
2023/01/11 08:38:59;;;;;;;3.75;1.70;;;;;;;;;;5133959;28;20559;-65
2023/01/11 08:41:26;;;;;;;4.35;2.08;;;;;;;;;;5133925;28;20198;-66
2023/01/11 08:43:54;;;;;;;4.03;1.80;;;;;;;;;;5134132;28;20201;-65
2023/01/11 08:46:21;;;;;;;2.97;1.98;;;;;;;;;;5133910;28;20202;-65
2023/01/11 08:48:49;;;;;;;2.42;1.60;;;;;;;;;;5134147;28;20202;-65
2023/01/11 08:51:18;;;;;;;3.15;1.80;;;;;;;;;;5134341;28;20263;-65
2023/01/11 08:53:47;;;;;;;2.63;1.70;;;;;;;;;;5133947;28;20238;-65
2023/01/11 08:56:15;;;;;;;2.70;1.60;;;;;;;;;;5134043;28;20261;-66
2023/01/11 08:58:42;;;;;;;4.18;1.88;;;;;;;;;;5150061;27;20293;-66
2023/01/11 09:01:11;;;;;;;2.83;2.05;;;;;;;;;;5156644;27;20284;-66
2023/01/11 09:03:39;;;;;;;2.58;1.48;;;;;;;;;;5157050;27;20209;-66
2023/01/11 09:06:06;;;;;;;3.58;1.67;;;;;;;;;;5157090;27;20233;-66
2023/01/11 09:08:34;;;;;;;2.42;1.40;;;;;;;;;;5156692;27;20497;-66
2023/01/11 09:11:52;;;;;;;2.85;1.90;;;;;;;;;;5156327;27;20202;-66
2023/01/11 09:13:51;;;;;;;3.33;1.50;;;;;;;;;;5157214;27;20225;-66
2023/01/11 09:16:19;;;;;;;3.00;1.55;;;;;;;;;;5159490;27;20212;-65
2023/01/11 09:18:46;;;;;;;2.63;1.60;;;;;;;;;;5160228;27;20254;-65
2023/01/11 09:21:14;;;;;;;2.72;1.60;;;;;;;;;;5160191;27;20304;-65
2023/01/11 09:23:43;;;;;;;2.65;1.60;;;;;;;;;;5160059;27;20304;-65
2023/01/11 09:26:13;;;;;;;2.05;1.63;;;;;;;;;;5159804;27;20202;-65
2023/01/11 09:28:40;;;;;;;1.70;1.30;;;;;;;;;;5159602;27;20293;-66
2023/01/11 09:31:08;;;;;;;3.20;1.67;;;;;;;;;;5160288;27;20509;-65
2023/01/11 09:33:37;;;;;;;2.17;1.48;;;;;;;;;;5160124;27;20241;-65
2023/01/11 09:36:05;;;;;;;2.58;1.45;;;;;;;;;;5160270;27;20275;-66
2023/01/11 09:38:32;;;;;;;2.08;1.40;;;;;;;;;;5158465;27;20608;-65
2023/01/11 09:41:04;;;;;;;3.95;1.70;;;;;;;;;;5157354;27;20486;-65
2023/01/11 09:43:37;;;;;;;2.53;1.63;;;;;;;;;;5157656;27;20281;-65
2023/01/11 09:46:07;;;;;;;2.45;1.45;;;;;;;;;;5158404;27;20228;-65
2023/01/11 09:48:37;;;;;;;1.73;1.30;;;;;;;;;;5158849;27;20236;-65
2023/01/11 09:51:05;;;;;;;1.30;1.15;;;;;;;;;;5158359;27;20201;-66
2023/01/11 09:53:36;;;;;;;2.33;1.50;;;;;;;;;;5149148;27;20536;-66
2023/01/11 09:56:06;;;;;;;2.58;1.30;;;;;;;;;;5135999;27;20574;-66
2023/01/11 09:58:45;;;;;;;2.55;1.38;;;;;;;;;;5136960;27;20202;-66
2023/01/11 10:01:15;;;;;;;2.20;1.40;;;;;;;;;;5137474;27;20194;-65
2023/01/11 10:03:57;;;;;;;2.50;1.50;;;;;;;;;;5136660;27;20202;-65
2023/01/11 10:06:27;;;;;;;2.05;1.33;;;;;;;;;;5137657;27;20458;-65
2023/01/11 10:09:02;;;;;;;2.42;1.48;;;;;;;;;;5136940;27;20509;-65
2023/01/11 10:11:36;;;;;;;1.77;1.17;;;;;;;;;;5137269;27;20574;-65
2023/01/11 10:14:09;;;;;;;1.42;1.27;;;;;;;;;;5136366;27;20573;-65
2023/01/11 10:16:43;;;;;;;2.30;1.40;;;;;;;;;;5137228;27;20217;-65
2023/01/11 10:19:17;;;;;;;1.45;1.00;;;;;;;;;;5136028;27;20208;-65
2023/01/11 10:21:48;;;;;;;2.55;1.20;;;;;;;;;;5136245;27;20531;-65
2023/01/11 10:24:22;;;;;;;1.80;1.38;;;;;;;;;;5136462;27;20581;-65
2023/01/11 10:26:51;;;;;;;2.00;1.10;;;;;;;;;;5135602;27;20198;-65
2023/01/11 10:29:46;;;;;;;1.77;1.20;;;;;;;;;;5135866;27;20202;-64
2023/01/11 10:35:16;;;;;;;1.63;1.00;;;;;;;;;;5131554;27;20202;-66
2023/01/11 10:38:01;;;;;;;1.55;1.30;;;;;;;;;;5137022;27;20196;-65
2023/01/11 10:40:38;;;;;;;1.60;1.20;;;;;;;;;;5136333;27;20202;-65
2023/01/11 10:43:11;;;;;;;1.77;1.15;;;;;;;;;;5135967;27;20209;-65
2023/01/11 10:45:45;;;;;;;2.20;1.20;;;;;;;;;;5136744;27;20260;-65
2023/01/11 10:48:14;;;;;;;1.80;1.10;;;;;;;;;;5136261;27;20222;-65
2023/01/11 10:50:45;;;;;;;1.58;1.05;;;;;;;;;;5136232;27;20202;-66
2023/01/11 10:53:15;;;;;;;1.85;1.05;;;;;;;;;;5139324;27;20230;-65
2023/01/11 10:55:47;;;;;;;1.25;0.88;;;;;;;;;;5156154;27;20206;-65
2023/01/11 10:58:21;;;;;;;1.10;1.00;;;;;;;;;;5156884;27;20272;-65
2023/01/11 11:00:57;;;;;;;1.33;1.10;;;;;;;;;;5155750;27;20265;-66
2023/01/11 11:03:39;;;;;;;1.63;1.20;;;;;;;;;;5154631;27;20312;-65
2023/01/11 11:06:09;;;;;;;1.80;1.00;;;;;;;;;;5156347;27;20202;-65
2023/01/11 11:08:40;;;;;;;1.20;1.08;;;;;;;;;;5155042;27;20388;-66
2023/01/11 11:11:09;;;;;;;0.90;0.80;;;;;;;;;;5154323;27;20202;-65
2023/01/11 11:13:42;;;;;;;1.10;1.00;;;;;;;;;;5156298;27;20229;-65
2023/01/11 11:16:23;;;;;;;1.30;0.95;;;;;;;;;;5155655;27;20201;-65
2023/01/11 11:18:51;;;;;;;1.10;1.00;;;;;;;;;;5154638;27;20237;-65
2023/01/11 11:21:22;;;;;;;1.80;1.00;;;;;;;;;;5156306;27;20242;-65
2023/01/11 11:23:54;;;;;;;1.13;0.80;;;;;;;;;;5155654;27;20202;-65
2023/01/11 11:26:23;;;;;;;1.33;0.80;;;;;;;;;;5155916;27;20207;-65
2023/01/11 11:29:00;;;;;;;1.38;0.95;;;;;;;;;;5152957;27;20258;-65
2023/01/11 11:31:30;;;;;;;1.30;1.00;;;;;;;;;;5155050;27;20309;-65
2023/01/11 11:33:58;;;;;;;1.38;1.13;;;;;;;;;;5153336;27;20238;-65
2023/01/11 11:36:26;;;;;;;1.15;0.90;;;;;;;;;;5153912;27;20296;-69
2023/01/11 11:39:10;;;;;;;1.30;0.70;;;;;;;;;;5153708;27;20196;-65
2023/01/11 11:41:46;;;;;;;0.95;0.80;;;;;;;;;;5154451;27;20197;-65
2023/01/11 11:44:17;;;;;;;1.17;0.90;;;;;;;;;;5154435;27;20258;-65
2023/01/11 11:46:58;;;;;;;0.65;0.65;;;;;;;;;;5154396;27;20606;-65
2023/01/11 11:49:26;;;;;;;0.70;0.70;;;;;;;;;;5154502;27;20225;-66
2023/01/11 11:51:54;;;;;;;0.95;0.88;;;;;;;;;;5153413;27;20197;-65
2023/01/11 11:54:23;;;;;;;0.80;0.80;;;;;;;;;;5154560;27;20684;-66
2023/01/11 11:56:52;;;;;;;0.80;0.80;;;;;;;;;;5154685;27;20629;-66
2023/01/11 11:59:21;;;;;;;1.63;0.70;;;;;;;;;;5154060;27;20197;-65
2023/01/11 12:01:50;;;;;;;0.80;0.80;;;;;;;;;;5153849;27;20448;-66
2023/01/11 12:04:21;;;;;;;0.88;0.77;;;;;;;;;;5154335;27;20193;-65
2023/01/11 12:06:52;;;;;;;1.10;0.93;;;;;;;;;;5153020;27;20441;-66
2023/01/11 12:09:27;;;;;;;1.58;0.80;;;;;;;;;;5152350;27;20326;-66
2023/01/11 12:11:55;;;;;;;1.08;0.73;;;;;;;;;;5150827;27;20504;-66
2023/01/11 12:14:24;;;;;;;1.08;0.70;;;;;;;;;;5154184;27;20607;-65
2023/01/11 12:16:52;;;;;;;0.70;0.70;;;;;;;;;;5153677;27;20201;-66
2023/01/11 12:19:28;;;;;;;0.98;0.88;;;;;;;;;;5153940;27;20509;-66
2023/01/11 12:22:10;;;;;;;0.60;0.60;;;;;;;;;;5153707;27;20193;-66
2023/01/11 12:24:37;;;;;;;0.73;0.63;;;;;;;;;;5153928;27;20210;-66
2023/01/11 12:27:09;;;;;;;0.90;0.77;;;;;;;;;;5154410;27;20293;-66
2023/01/11 12:29:52;;;;;;;0.77;0.70;;;;;;;;;;5152982;27;20485;-66
2023/01/11 12:32:29;;;;;;;1.20;0.60;;;;;;;;;;5149608;27;20208;-65
2023/01/11 12:35:14;;;;;;;0.55;0.55;;;;;;;;;;5153725;27;20201;-66
2023/01/11 12:37:54;;;;;;;0.80;0.60;;;;;;;;;;5153548;27;20206;-65
2023/01/11 12:40:26;;;;;;;0.73;0.73;;;;;;;;;;5154286;27;20271;-65
2023/01/11 12:43:03;;;;;;;0.63;0.60;;;;;;;;;;5151691;27;20501;-65
2023/01/11 12:45:36;;;;;;;0.88;0.65;;;;;;;;;;5153050;27;20320;-65
2023/01/11 12:48:22;;;;;;;0.80;0.80;;;;;;;;;;5154991;27;20217;-65
2023/01/11 12:51:08;;;;;;;0.50;0.50;;;;;;;;;;5157018;27;20205;-65
2023/01/11 12:53:42;;;;;;;0.60;0.60;;;;;;;;;;5156531;27;20233;-65
2023/01/11 12:56:20;;;;;;;0.50;0.50;;;;;;;;;;5156760;27;20251;-66
2023/01/11 12:58:51;;;;;;;0.77;0.50;;;;;;;;;;5155594;27;20189;-65
2023/01/11 13:01:24;;;;;;;0.70;0.68;;;;;;;;;;5157575;27;20258;-65
2023/01/11 13:04:13;;;;;;;1.33;0.50;;;;;;;;;;5156876;27;20200;-65
2023/01/11 13:06:44;;;;;;;0.80;0.60;;;;;;;;;;5156939;27;20225;-65
2023/01/11 13:09:17;;;;;;;0.77;0.70;;;;;;;;;;5156929;27;20236;-65
2023/01/11 13:11:53;;;;;;;0.60;0.50;;;;;;;;;;5156558;27;20252;-65
2023/01/11 13:14:28;;;;;;;0.57;0.50;;;;;;;;;;5156378;27;20223;-65
2023/01/11 13:17:00;;;;;;;0.50;0.50;;;;;;;;;;5158045;27;20262;-65
2023/01/11 13:19:31;;;;;;;0.45;0.45;;;;;;;;;;5157976;27;20198;-65
2023/01/11 13:22:04;;;;;;;0.60;0.60;;;;;;;;;;5157101;27;20476;-65
2023/01/11 13:24:32;;;;;;;0.65;0.60;;;;;;;;;;5157928;27;20212;-65
2023/01/11 13:27:01;;;;;;;0.70;0.57;;;;;;;;;;5154968;27;20300;-65
2023/01/11 13:29:30;;;;;;;0.70;0.52;;;;;;;;;;5156327;27;20471;-65
2023/01/11 13:31:59;;;;;;;0.70;0.70;;;;;;;;;;5155037;27;20289;-65
2023/01/11 13:34:28;;;;;;;0.60;0.50;;;;;;;;;;5156222;27;20198;-65
2023/01/11 13:36:58;;;;;;;0.60;0.60;;;;;;;;;;5155895;27;20194;-65
2023/01/11 13:39:30;;;;;;;0.52;0.47;;;;;;;;;;5154613;27;20205;-65
2023/01/11 13:42:02;;;;;;;0.90;0.70;;;;;;;;;;5153834;27;20198;-65
2023/01/11 13:44:32;;;;;;;0.52;0.52;;;;;;;;;;5155762;27;20201;-65
2023/01/11 13:47:03;;;;;;;0.60;0.60;;;;;;;;;;5154843;27;20585;-65
2023/01/11 13:49:39;;;;;;;0.60;0.60;;;;;;;;;;5155187;27;20225;-65
2023/01/11 13:52:11;;;;;;;0.52;0.50;;;;;;;;;;5155274;27;20208;-65
2023/01/11 13:54:45;;;;;;;0.65;0.60;;;;;;;;;;5155259;27;20270;-65
2023/01/11 13:57:16;;;;;;;0.70;0.70;;;;;;;;;;5155149;27;20205;-65
2023/01/11 13:59:45;;;;;;;0.50;0.50;;;;;;;;;;5155366;27;20215;-65
2023/01/11 14:02:18;;;;;;;0.47;0.43;;;;;;;;;;5155733;27;20493;-65
2023/01/11 14:04:49;;;;;;;0.50;0.40;;;;;;;;;;5156605;27;20457;-65
2023/01/11 14:07:22;;;;;;;0.52;0.50;;;;;;;;;;5156523;27;20349;-66
2023/01/11 14:09:56;;;;;;;0.55;0.40;;;;;;;;;;5156090;27;20225;-65
2023/01/11 14:12:31;;;;;;;0.50;0.50;;;;;;;;;;5156405;27;20584;-66
2023/01/11 14:15:06;;;;;;;0.50;0.50;;;;;;;;;;5156122;27;20201;-65
2023/01/11 14:17:43;;;;;;;0.40;0.40;;;;;;;;;;5154874;27;20336;-65
2023/01/11 14:20:17;;;;;;;0.50;0.45;;;;;;;;;;5156064;27;20276;-65
2023/01/11 14:22:50;;;;;;;0.63;0.40;;;;;;;;;;5156253;27;20212;-65
2023/01/11 14:25:21;;;;;;;0.73;0.50;;;;;;;;;;5155503;27;20194;-66
2023/01/11 14:28:04;;;;;;;0.43;0.40;;;;;;;;;;5156175;27;20202;-65
2023/01/11 14:30:49;;;;;;;0.50;0.50;;;;;;;;;;5155197;27;20221;-65
2023/01/11 14:33:28;;;;;;;0.40;0.40;;;;;;;;;;5154635;27;20499;-69
2023/01/11 14:36:05;;;;;;;0.50;0.50;;;;;;;;;;5155135;27;20266;-65
2023/01/11 14:38:50;;;;;;;0.50;0.50;;;;;;;;;;5155583;27;20432;-65
2023/01/11 14:41:39;;;;;;;0.40;0.40;;;;;;;;;;5154870;27;20451;-66
2023/01/11 14:44:24;;;;;;;0.60;0.60;;;;;;;;;;5155888;27;20212;-65
2023/01/11 14:47:17;;;;;;;0.50;0.50;;;;;;;;;;5154901;27;20269;-65
2023/01/11 14:49:52;;;;;;;0.50;0.50;;;;;;;;;;5155697;27;20320;-65
2023/01/11 14:52:22;;;;;;;0.38;0.38;;;;;;;;;;5155315;27;20211;-65
2023/01/11 14:54:51;;;;;;;0.50;0.50;;;;;;;;;;5154725;27;20237;-65
2023/01/11 14:57:45;;;;;;;0.50;0.47;;;;;;;;;;5153782;27;20574;-65
2023/01/11 15:00:33;;;;;;;0.60;0.60;;;;;;;;;;5093992;27;20264;-66
2023/01/11 15:03:17;;;;;;;0.40;0.32;;;;;;;;;;5154632;27;20252;-66
2023/01/11 15:05:47;;;;;;;0.50;0.50;;;;;;;;;;5153807;27;20547;-66
2023/01/11 15:08:22;;;;;;;0.50;0.50;;;;;;;;;;5153527;27;20208;-65
2023/01/11 15:10:56;;;;;;;0.40;0.40;;;;;;;;;;5153003;27;20200;-66
2023/01/11 15:13:25;;;;;;;0.68;0.52;;;;;;;;;;5152270;27;20471;-65
2023/01/11 15:18:45;;;;;;;0.50;0.50;;;;;;;;;;5153676;27;20204;-65
2023/01/11 15:21:18;;;;;;;0.40;0.40;;;;;;;;;;5153922;27;20558;-65
2023/01/11 15:23:48;;;;;;;0.30;0.30;;;;;;;;;;5153888;27;20595;-66
2023/01/11 15:26:18;;;;;;;0.40;0.40;;;;;;;;;;5153332;27;20201;-65
2023/01/11 15:28:49;;;;;;;0.40;0.40;;;;;;;;;;5153867;27;20593;-66
2023/01/11 15:31:33;;;;;;;0.60;0.50;;;;;;;;;;5153938;27;20292;-66
2023/01/11 15:34:02;;;;;;;0.30;0.30;;;;;;;;;;5154258;27;20193;-72